createdAt,value
2023-04-02T00:02:27.713Z,99532.05
2023-04-02T00:05:18.462Z,99531.17
2023-04-02T00:07:52.361Z,99528.96
2023-04-02T00:10:26.678Z,99529.80
2023-04-02T00:13:18.620Z,99532.39
2023-04-02T00:15:48.424Z,99531.18
2023-04-02T00:18:19.309Z,99534.21
2023-04-02T00:20:56.859Z,99530.42
2023-04-02T00:23:25.649Z,99525.86
2023-04-02T00:25:53.923Z,99523.16
2023-04-02T00:28:23.944Z,99525.84
2023-04-02T00:30:55.640Z,99524.59
2023-04-02T00:33:27.462Z,99527.05
2023-04-02T00:35:56.666Z,99523.17
2023-04-02T00:38:30.272Z,99521.40
2023-04-02T00:41:06.853Z,99520.61
2023-04-02T00:43:38.523Z,99518.92
2023-04-02T00:46:15.930Z,99518.37
2023-04-02T00:48:47.225Z,99520.73
2023-04-02T00:51:39.670Z,99520.67
2023-04-02T00:54:15.928Z,99521.03
2023-04-02T00:56:46.261Z,99521.47
2023-04-02T00:59:26.546Z,99523.34
2023-04-02T01:02:02.070Z,99527.42
2023-04-02T01:04:34.900Z,99527.92
2023-04-02T01:07:07.031Z,99531.35
2023-04-02T01:09:48.192Z,99529.30
2023-04-02T01:12:50.875Z,99530.33
2023-04-02T01:15:27.972Z,99532.02
2023-04-02T01:18:27.162Z,99535.48
2023-04-02T01:21:04.862Z,99540.34
2023-04-02T01:23:43.997Z,99547.23
2023-04-02T01:26:24.963Z,99547.70
2023-04-02T01:29:16.282Z,99547.94
2023-04-02T01:31:46.211Z,99546.48
2023-04-02T01:34:18.290Z,99546.66
2023-04-02T01:37:04.576Z,99548.92
2023-04-02T01:39:51.681Z,99549.38
2023-04-02T01:43:04.511Z,99547.13
2023-04-02T01:45:35.511Z,99547.60
2023-04-02T01:48:20.510Z,99549.93
2023-04-02T01:50:52.860Z,99547.32
2023-04-02T01:53:23.543Z,99549.05
2023-04-02T01:56:00.733Z,99549.38
2023-04-02T01:58:31.962Z,99545.11
2023-04-02T02:01:06.457Z,99544.94
2023-04-02T02:03:35.268Z,99543.05
2023-04-02T02:06:04.154Z,99538.68
2023-04-02T02:08:58.130Z,99539.02
2023-04-02T02:11:28.966Z,99541.33
2023-04-02T02:13:59.190Z,99542.85
2023-04-02T02:16:29.384Z,99543.77
2023-04-02T02:19:05.585Z,99541.80
2023-04-02T02:21:43.075Z,99540.44
2023-04-02T02:24:31.986Z,99539.35
2023-04-02T02:27:25.422Z,99544.20
2023-04-02T02:30:11.083Z,99550.84
2023-04-02T02:32:51.399Z,99550.18
2023-04-02T02:35:24.621Z,99552.85
2023-04-02T02:38:02.230Z,99553.13
2023-04-02T02:40:37.759Z,99550.54
2023-04-02T02:43:11.086Z,99554.67
2023-04-02T02:45:41.405Z,99555.48
2023-04-02T02:48:15.644Z,99554.77
2023-04-02T02:50:44.611Z,99558.58
2023-04-02T02:53:24.707Z,99560.96
2023-04-02T02:55:58.362Z,99561.04
2023-04-02T02:58:32.277Z,99561.56
2023-04-02T03:01:00.973Z,99561.81
2023-04-02T03:03:31.507Z,99566.21
2023-04-02T03:06:10.929Z,99567.34
2023-04-02T03:08:49.657Z,99569.42
2023-04-02T03:11:43.093Z,99570.16
2023-04-02T03:14:42.827Z,99572.39
2023-04-02T03:17:18.153Z,99573.14
2023-04-02T03:19:53.107Z,99574.22
2023-04-02T03:22:23.736Z,99574.52
2023-04-02T03:25:18.536Z,99575.15
2023-04-02T03:27:48.347Z,99577.29
2023-04-02T03:30:39.466Z,99581.61
2023-04-02T03:33:18.091Z,99585.43
2023-04-02T03:35:58.886Z,99588.66
2023-04-02T03:38:34.317Z,99590.19
2023-04-02T03:41:11.691Z,99592.67
2023-04-02T03:43:53.882Z,99594.53
2023-04-02T03:46:28.117Z,99597.44
2023-04-02T03:49:00.946Z,99600.83
2023-04-02T03:51:53.153Z,99601.83
2023-04-02T03:54:21.667Z,99605.46
2023-04-02T03:56:52.733Z,99609.81
2023-04-02T03:59:23.800Z,99614.86
2023-04-02T04:02:08.197Z,99613.98
2023-04-02T04:04:41.196Z,99617.62
2023-04-02T04:07:22.044Z,99621.11
2023-04-02T04:09:52.345Z,99624.22
2023-04-02T04:12:29.217Z,99622.20
2023-04-02T04:15:12.722Z,99623.72
2023-04-02T04:18:04.553Z,99623.45
2023-04-02T04:20:34.202Z,99622.20
2023-04-02T04:23:10.903Z,99624.91
2023-04-02T04:25:40.471Z,99627.58
2023-04-02T04:28:38.675Z,99628.45
2023-04-02T04:31:31.135Z,99631.30
2023-04-02T04:34:05.478Z,99631.36
2023-04-02T04:36:41.899Z,99635.31
2023-04-02T04:39:17.332Z,99637.34
2023-04-02T04:41:46.936Z,99638.60
2023-04-02T04:45:23.637Z,99641.94
2023-04-02T04:47:56.608Z,99645.60
2023-04-02T04:50:33.786Z,99652.44
2023-04-02T04:53:06.875Z,99649.33
2023-04-02T04:55:40.888Z,99651.92
2023-04-02T04:58:19.997Z,99652.41
2023-04-02T05:00:51.163Z,99653.44
2023-04-02T05:03:48.928Z,99656.26
2023-04-02T05:06:42.927Z,99661.77
2023-04-02T05:09:34.529Z,99664.23
2023-04-02T05:12:13.771Z,99663.91
2023-04-02T05:14:57.915Z,99665.40
2023-04-02T05:17:42.796Z,99667.15
2023-04-02T05:20:18.483Z,99669.80
2023-04-02T05:23:10.563Z,99669.58
2023-04-02T05:25:51.643Z,99672.73
2023-04-02T05:28:26.065Z,99673.83
2023-04-02T05:31:02.771Z,99673.27
2023-04-02T05:33:36.247Z,99676.67
2023-04-02T05:36:13.091Z,99677.30
2023-04-02T05:38:46.739Z,99679.83
2023-04-02T05:41:38.648Z,99681.23
2023-04-02T05:44:16.255Z,99685.41
2023-04-02T05:46:49.941Z,99687.63
2023-04-02T05:49:49.409Z,99695.54
2023-04-02T05:52:28.642Z,99700.85
2023-04-02T05:55:25.038Z,99704.57
2023-04-02T05:58:21.484Z,99711.44
2023-04-02T06:00:52.304Z,99719.70
2023-04-02T06:03:33.126Z,99723.61
2023-04-02T06:06:14.267Z,99727.09
2023-04-02T06:08:55.016Z,99731.33
2023-04-02T06:11:31.394Z,99730.08
2023-04-02T06:14:00.792Z,99728.35
2023-04-02T06:16:30.633Z,99734.00
2023-04-02T06:18:59.192Z,99734.60
2023-04-02T06:21:27.671Z,99738.19
2023-04-02T06:24:02.865Z,99737.11
2023-04-02T06:26:37.367Z,99735.77
2023-04-02T06:29:20.780Z,99734.34
2023-04-02T06:31:56.372Z,99734.09
2023-04-02T06:34:26.541Z,99737.20
2023-04-02T06:38:00.296Z,99735.39
2023-04-02T06:40:42.536Z,99739.88
2023-04-02T06:43:16.976Z,99743.04
2023-04-02T06:45:47.572Z,99745.18
2023-04-02T06:48:18.298Z,99746.61
2023-04-02T06:50:50.741Z,99749.71
2023-04-02T06:53:28.425Z,99750.34
2023-04-02T06:56:12.152Z,99752.34
2023-04-02T06:58:40.741Z,99754.70
2023-04-02T07:01:15.990Z,99759.30
2023-04-02T07:03:44.258Z,99759.88
2023-04-02T07:06:21.235Z,99765.16
2023-04-02T07:08:49.720Z,99769.58
2023-04-02T07:11:21.559Z,99774.62
2023-04-02T07:13:51.183Z,99783.56
2023-04-02T07:16:27.612Z,99786.40
2023-04-02T07:18:58.913Z,99789.64
2023-04-02T07:21:28.126Z,99793.90
2023-04-02T07:23:56.473Z,99790.46
2023-04-02T07:26:28.213Z,99794.57
2023-04-02T07:28:57.344Z,99794.89
2023-04-02T07:31:28.348Z,99795.08
2023-04-02T07:34:00.104Z,99797.55
2023-04-02T07:36:29.650Z,99803.11
2023-04-02T07:38:58.038Z,99804.07
2023-04-02T07:41:27.865Z,99807.61
2023-04-02T07:43:56.216Z,99813.96
2023-04-02T07:46:26.253Z,99814.80
2023-04-02T07:48:54.721Z,99819.11
2023-04-02T07:51:26.212Z,99817.39
2023-04-02T07:53:57.324Z,99816.07
2023-04-02T07:56:26.101Z,99819.23
2023-04-02T07:58:55.097Z,99822.97
2023-04-02T08:01:27.972Z,99824.60
2023-04-02T08:03:57.720Z,99829.12
2023-04-02T08:06:26.223Z,99832.23
2023-04-02T08:08:55.471Z,99832.02
2023-04-02T08:11:24.159Z,99834.30
2023-04-02T08:13:52.441Z,99835.42
2023-04-02T08:16:21.026Z,99836.33
2023-04-02T08:18:49.600Z,99835.57
2023-04-02T08:21:18.082Z,99839.43
2023-04-02T08:23:46.365Z,99841.02
2023-04-02T08:26:18.997Z,99843.82
2023-04-02T08:28:47.224Z,99846.11
2023-04-02T08:31:15.728Z,99852.87
2023-04-02T08:33:44.187Z,99854.52
2023-04-02T08:36:17.230Z,99856.23
2023-04-02T08:38:45.854Z,99854.95
2023-04-02T08:41:22.721Z,99856.24
2023-04-02T08:44:03.917Z,99852.97
2023-04-02T08:46:44.995Z,99860.18
2023-04-02T08:49:17.368Z,99863.16
2023-04-02T08:51:46.883Z,99868.04
2023-04-02T08:54:18.822Z,99868.52
2023-04-02T08:56:56.632Z,99868.31
2023-04-02T08:59:39.760Z,99872.39
2023-04-02T09:02:36.158Z,99869.38
2023-04-02T09:05:08.042Z,99868.21
2023-04-02T09:07:36.433Z,99869.28
2023-04-02T09:10:05.650Z,99868.21
2023-04-02T09:12:34.833Z,99868.54
2023-04-02T09:15:12.334Z,99871.84
2023-04-02T09:17:53.141Z,99875.48
2023-04-02T09:20:26.519Z,99878.69
2023-04-02T09:22:56.406Z,99883.73
2023-04-02T09:25:28.154Z,99884.34
2023-04-02T09:27:58.205Z,99888.61
2023-04-02T09:30:32.598Z,99891.45
2023-04-02T09:33:09.376Z,99893.61
2023-04-02T09:35:55.392Z,99889.36
2023-04-02T09:38:29.379Z,99896.63
2023-04-02T09:41:04.191Z,99900.89
2023-04-02T09:43:35.692Z,99899.23
2023-04-02T09:46:06.513Z,99904.10
2023-04-02T09:48:39.555Z,99906.55
2023-04-02T09:51:14.417Z,99911.13
2023-04-02T09:53:45.012Z,99911.86
2023-04-02T09:56:18.264Z,99917.17
2023-04-02T09:58:47.493Z,99912.61
2023-04-02T10:01:29.725Z,99915.44
2023-04-02T10:03:59.581Z,99914.70
2023-04-02T10:06:29.772Z,99915.26
2023-04-02T10:08:58.469Z,99913.19
2023-04-02T10:11:46.400Z,99914.05
2023-04-02T10:14:31.137Z,99920.06
2023-04-02T10:17:12.024Z,99921.65
2023-04-02T10:19:48.046Z,99915.55
2023-04-02T10:22:18.831Z,99931.77
2023-04-02T10:24:47.688Z,99932.06
2023-04-02T10:27:38.189Z,99929.54
2023-04-02T10:30:19.423Z,99926.92
2023-04-02T10:33:06.016Z,99931.40
2023-04-02T10:35:58.893Z,99937.99
2023-04-02T10:38:47.838Z,99944.43
2023-04-02T10:41:32.288Z,99945.95
2023-04-02T10:44:39.298Z,99943.31
2023-04-02T10:47:27.495Z,99945.27
2023-04-02T10:50:01.675Z,99941.48
2023-04-02T10:52:34.819Z,99942.83
2023-04-02T10:55:21.398Z,99943.36
2023-04-02T10:57:50.739Z,99950.36
2023-04-02T11:00:25.065Z,99955.09
2023-04-02T11:03:00.999Z,99960.25
2023-04-02T11:05:40.550Z,99960.27
2023-04-02T11:08:26.886Z,99958.50
2023-04-02T11:11:08.186Z,99957.27
2023-04-02T11:13:54.327Z,99957.08
2023-04-02T11:16:23.533Z,99956.70
2023-04-02T11:19:17.006Z,99962.03
2023-04-02T11:21:58.091Z,99962.64
2023-04-02T11:24:30.344Z,99961.56
2023-04-02T11:27:11.110Z,99959.07
2023-04-02T11:29:54.335Z,99967.41
2023-04-02T11:32:24.399Z,99967.65
2023-04-02T11:35:05.813Z,99970.96
2023-04-02T11:37:46.409Z,99976.14
2023-04-02T11:40:15.101Z,99979.56
2023-04-02T11:42:49.024Z,99979.39
2023-04-02T11:45:20.872Z,99980.45
2023-04-02T11:48:08.489Z,99981.28
2023-04-02T11:50:44.481Z,99986.60
2023-04-02T11:53:12.931Z,99989.59
2023-04-02T11:55:46.329Z,99991.72
2023-04-02T11:58:30.288Z,100000.15
2023-04-02T12:01:45.514Z,100003.95
2023-04-02T12:04:38.423Z,100007.91
2023-04-02T12:07:27.463Z,100011.59
2023-04-02T12:09:59.210Z,100013.27
2023-04-02T12:12:33.884Z,100018.57
2023-04-02T12:15:02.026Z,100027.58
2023-04-02T12:17:39.343Z,100024.21
2023-04-02T12:20:09.557Z,100025.81
2023-04-02T12:22:57.885Z,100027.18
2023-04-02T12:25:29.451Z,100031.41
2023-04-02T12:28:09.905Z,100033.45
2023-04-02T12:30:39.180Z,100032.40
2023-04-02T12:33:19.870Z,100035.02
2023-04-02T12:35:53.192Z,100035.80
2023-04-02T12:38:27.749Z,100035.52
2023-04-02T12:41:01.133Z,100031.41
2023-04-02T12:43:32.348Z,100032.62
2023-04-02T12:46:06.721Z,100031.87
2023-04-02T12:48:36.689Z,100033.80
2023-04-02T12:51:05.265Z,100035.27
2023-04-02T12:53:39.823Z,100036.94
2023-04-02T12:56:08.670Z,100039.13
2023-04-02T12:58:43.401Z,100037.67
2023-04-02T13:01:21.366Z,100036.88
2023-04-02T13:04:09.156Z,100035.71
2023-04-02T13:06:38.025Z,100031.61
2023-04-02T13:09:27.351Z,100029.00
2023-04-02T13:11:57.107Z,100027.60
2023-04-02T13:14:26.201Z,100030.81
2023-04-02T13:16:55.199Z,100028.65
2023-04-02T13:19:23.585Z,100032.33
2023-04-02T13:21:53.446Z,100030.42
2023-04-02T13:24:24.725Z,100029.34
2023-04-02T13:27:03.957Z,100033.29
2023-04-02T13:29:36.631Z,100033.46
2023-04-02T13:32:08.162Z,100038.58
2023-04-02T13:34:36.415Z,100038.83
2023-04-02T13:37:04.772Z,100037.87
2023-04-02T13:39:33.341Z,100034.93
2023-04-02T13:42:04.044Z,100037.70
2023-04-02T13:44:34.533Z,100040.51
2023-04-02T13:47:02.787Z,100040.10
2023-04-02T13:49:32.205Z,100041.63
2023-04-02T13:52:04.174Z,100041.50
2023-04-02T13:54:41.832Z,100038.98
2023-04-02T13:57:10.262Z,100043.95
2023-04-02T13:59:38.916Z,100045.51
2023-04-02T14:02:11.803Z,100045.34
2023-04-02T14:04:46.309Z,100045.72
2023-04-02T14:07:33.541Z,100048.07
2023-04-02T14:10:27.217Z,100047.12
2023-04-02T14:13:39.733Z,100049.86
2023-04-02T14:16:36.028Z,100054.21
2023-04-02T14:19:07.411Z,100057.73
2023-04-02T14:22:00.780Z,100058.34
2023-04-02T14:24:29.165Z,100057.73
2023-04-02T14:27:52.020Z,100062.36
2023-04-02T14:30:32.690Z,100066.55
2023-04-02T14:33:19.598Z,100068.58
2023-04-02T14:35:54.755Z,100071.05
2023-04-02T14:38:31.918Z,100070.02
2023-04-02T14:41:09.208Z,100070.30
2023-04-02T14:43:46.712Z,100067.11
2023-04-02T14:46:15.010Z,100067.43
2023-04-02T14:49:10.495Z,100067.88
2023-04-02T14:51:45.489Z,100074.40
2023-04-02T14:54:59.824Z,100076.02
2023-04-02T14:57:35.881Z,100083.44
2023-04-02T15:00:24.366Z,100081.01
2023-04-02T15:03:14.155Z,100081.23
2023-04-02T15:05:48.318Z,100083.77
2023-04-02T15:08:27.726Z,100084.95
2023-04-02T15:11:17.816Z,100085.42
2023-04-02T15:14:00.774Z,100088.00
2023-04-02T15:16:29.071Z,100089.84
2023-04-02T15:18:59.659Z,100094.92
2023-04-02T15:24:37.572Z,100104.48
2023-04-02T15:27:25.801Z,100107.61
2023-04-02T15:30:03.723Z,100111.64
2023-04-02T15:32:35.909Z,100111.45
2023-04-02T15:35:40.603Z,100118.54
2023-04-02T15:38:20.567Z,100131.61
2023-04-02T15:40:55.029Z,100135.58
2023-04-02T15:43:39.852Z,100138.00
2023-04-02T15:46:26.945Z,100140.23
2023-04-02T15:49:08.576Z,100135.58
2023-04-02T15:52:06.543Z,100138.72
2023-04-02T15:54:40.857Z,100147.26
2023-04-02T15:57:12.147Z,100151.58
2023-04-02T15:59:52.795Z,100151.98
2023-04-02T16:03:02.893Z,100146.70
2023-04-02T16:05:46.771Z,100149.70
2023-04-02T16:08:41.465Z,100147.65
2023-04-02T16:11:14.768Z,100150.09
2023-04-02T16:13:43.782Z,100150.86
2023-04-02T16:16:19.458Z,100151.56
2023-04-02T16:19:16.163Z,100151.73
2023-04-02T16:21:53.475Z,100154.15
2023-04-02T16:24:22.942Z,100155.64
2023-04-02T16:26:57.610Z,100156.80
2023-04-02T16:29:58.377Z,100159.64
2023-04-02T16:32:36.450Z,100167.86
2023-04-02T16:35:41.844Z,100171.56
2023-04-02T16:38:25.013Z,100176.89
2023-04-02T16:41:09.474Z,100178.20
2023-04-02T16:43:45.266Z,100180.34
2023-04-02T16:46:28.220Z,100178.89
2023-04-02T16:49:12.785Z,100178.05
2023-04-02T16:51:48.436Z,100183.69
2023-04-02T16:54:25.092Z,100191.67
2023-04-02T16:57:14.114Z,100193.85
2023-04-02T17:00:07.657Z,100198.42
2023-04-02T17:03:00.081Z,100198.96
2023-04-02T17:05:40.548Z,100211.84
2023-04-02T17:08:24.598Z,100217.67
2023-04-02T17:11:15.698Z,100223.50
2023-04-02T17:13:50.919Z,100219.98
2023-04-02T17:16:22.067Z,100225.65
2023-04-02T17:18:53.387Z,100225.95
2023-04-02T17:21:26.461Z,100228.02
2023-04-02T17:23:56.814Z,100211.23
2023-04-02T17:26:29.141Z,100229.72
2023-04-02T17:29:02.206Z,100231.81
2023-04-02T17:31:35.324Z,100236.10
2023-04-02T17:34:15.258Z,100240.02
2023-04-02T17:37:12.632Z,100243.14
2023-04-02T17:39:52.967Z,100244.94
2023-04-02T17:42:36.399Z,100248.98
2023-04-02T17:45:17.074Z,100248.23
2023-04-02T17:48:17.607Z,100251.99
2023-04-02T17:51:11.843Z,100258.35
2023-04-02T17:54:09.669Z,100254.84
2023-04-02T17:56:48.223Z,100256.52
2023-04-02T17:59:51.102Z,100259.39
2023-04-02T18:02:25.434Z,100267.70
2023-04-02T18:05:18.262Z,100267.62
2023-04-02T18:07:52.553Z,100273.16
2023-04-02T18:10:51.036Z,100275.52
2023-04-02T18:13:35.319Z,100281.85
2023-04-02T18:16:22.862Z,100281.66
2023-04-02T18:19:23.045Z,100284.11
2023-04-02T18:22:04.228Z,100287.30
2023-04-02T18:24:56.358Z,100290.27
2023-04-02T18:27:28.028Z,100292.00
2023-04-02T18:30:02.074Z,100293.19
2023-04-02T18:32:42.907Z,100291.42
2023-04-02T18:35:14.453Z,100288.51
2023-04-02T18:38:02.902Z,100290.73
2023-04-02T18:40:47.168Z,100292.94
2023-04-02T18:43:29.773Z,100297.47
2023-04-02T18:46:30.971Z,100297.24
2023-04-02T18:49:21.416Z,100297.89
2023-04-02T18:51:54.603Z,100303.88
2023-04-02T18:54:35.069Z,100310.93
2023-04-02T18:57:12.240Z,100313.50
2023-04-02T18:59:45.616Z,100316.01
2023-04-02T19:02:28.208Z,100321.11
2023-04-02T19:05:04.297Z,100324.26
2023-04-02T19:07:37.103Z,100326.85
2023-04-02T19:10:21.258Z,100325.98
2023-04-02T19:12:49.632Z,100325.77
2023-04-02T19:15:20.564Z,100327.58
2023-04-02T19:17:51.938Z,100327.65
2023-04-02T19:20:31.198Z,100328.81
2023-04-02T19:23:30.159Z,100333.92
2023-04-02T19:26:02.938Z,100337.80
2023-04-02T19:28:38.094Z,100336.58
2023-04-02T19:31:33.900Z,100336.58
2023-04-02T19:34:23.800Z,100342.70
2023-04-02T19:37:15.922Z,100342.48
2023-04-02T19:40:04.908Z,100344.42
2023-04-02T19:42:39.102Z,100343.92
2023-04-02T19:45:25.614Z,100343.89
2023-04-02T19:47:54.778Z,100343.81
2023-04-02T19:50:23.281Z,100341.32
2023-04-02T19:52:51.658Z,100339.88
2023-04-02T19:55:20.550Z,100344.13
2023-04-02T19:57:48.936Z,100349.02
2023-04-02T20:00:18.153Z,100348.60
2023-04-02T20:02:46.551Z,100344.27
2023-04-02T20:05:15.297Z,100340.74
2023-04-02T20:07:43.699Z,100339.59
2023-04-02T20:10:12.573Z,100339.14
2023-04-02T20:12:41.356Z,100339.90
2023-04-02T20:15:10.371Z,100336.59
2023-04-02T20:17:38.787Z,100339.42
2023-04-02T20:20:08.371Z,100338.90
2023-04-02T20:22:36.732Z,100341.46
2023-04-02T20:25:05.923Z,100344.81
2023-04-02T20:27:34.301Z,100343.06
2023-04-02T20:30:03.827Z,100345.91
2023-04-02T20:32:32.560Z,100345.80
2023-04-02T20:35:02.012Z,100350.03
2023-04-02T20:37:30.378Z,100351.02
2023-04-02T20:39:59.502Z,100352.90
2023-04-02T20:42:28.059Z,100357.77
2023-04-02T20:44:56.538Z,100359.42
2023-04-02T20:47:25.174Z,100358.45
2023-04-02T20:49:53.503Z,100359.92
2023-04-02T20:52:22.395Z,100361.36
2023-04-02T20:54:51.412Z,100362.61
2023-04-02T20:57:22.375Z,100364.88
2023-04-02T20:59:51.021Z,100366.48
2023-04-02T21:02:19.401Z,100373.10
2023-04-02T21:04:47.912Z,100381.40
2023-04-02T21:07:17.088Z,100380.88
2023-04-02T21:09:45.563Z,100381.35
2023-04-02T21:12:13.938Z,100389.86
2023-04-02T21:14:42.418Z,100389.86
2023-04-02T21:17:10.906Z,100387.44
2023-04-02T21:19:39.276Z,100392.02
2023-04-02T21:22:07.781Z,100392.85
2023-04-02T21:24:36.139Z,100397.38
2023-04-02T21:27:04.512Z,100396.84
2023-04-02T21:29:33.002Z,100390.52
2023-04-02T21:32:05.503Z,100385.56
2023-04-02T21:34:39.888Z,100387.99
2023-04-02T21:37:08.268Z,100388.26
2023-04-02T21:39:37.260Z,100389.96
2023-04-02T21:42:05.951Z,100391.95
2023-04-02T21:44:34.220Z,100393.36
2023-04-02T21:47:02.891Z,100390.33
2023-04-02T21:49:31.501Z,100392.00
2023-04-02T21:52:00.180Z,100393.39
2023-04-02T21:54:28.598Z,100391.05
2023-04-02T21:56:57.260Z,100393.38
2023-04-02T21:59:26.181Z,100394.42
2023-04-02T22:01:55.009Z,100396.20
2023-04-02T22:04:25.742Z,100397.04
2023-04-02T22:06:54.475Z,100395.81
2023-04-02T22:09:24.901Z,100401.06
2023-04-02T22:11:55.667Z,100394.31
2023-04-02T22:14:23.900Z,100406.73
2023-04-02T22:16:52.491Z,100409.88
2023-04-02T22:19:21.692Z,100411.70
2023-04-02T22:21:50.162Z,100410.31
2023-04-02T22:24:19.164Z,100409.84
2023-04-02T22:26:47.745Z,100411.10
2023-04-02T22:29:17.034Z,100410.42
2023-04-02T22:31:45.822Z,100408.27
2023-04-02T22:34:14.657Z,100405.63
2023-04-02T22:36:42.992Z,100407.52
2023-04-02T22:39:12.647Z,100408.54
2023-04-02T22:41:41.204Z,100408.75
2023-04-02T22:44:14.116Z,100407.63
2023-04-02T22:46:42.485Z,100406.80
2023-04-02T22:49:11.910Z,100410.40
2023-04-02T22:51:40.640Z,100413.84
2023-04-02T22:54:09.015Z,100403.91
2023-04-02T22:56:37.905Z,100407.38
2023-04-02T22:59:07.012Z,100413.23
2023-04-02T23:01:37.061Z,100411.04
2023-04-02T23:04:05.633Z,100411.70
2023-04-02T23:06:34.191Z,100415.53
2023-04-02T23:09:02.574Z,100412.52
2023-04-02T23:11:30.956Z,100413.81
2023-04-02T23:13:59.658Z,100415.21
2023-04-02T23:16:29.557Z,100417.06
2023-04-02T23:18:58.894Z,100417.48
2023-04-02T23:21:27.339Z,100418.61
2023-04-02T23:23:56.229Z,100414.95
2023-04-02T23:26:29.453Z,100413.55
2023-04-02T23:28:58.417Z,100418.77
2023-04-02T23:31:27.235Z,100418.50
2023-04-02T23:33:55.825Z,100418.21
2023-04-02T23:36:26.646Z,100417.44
2023-04-02T23:38:56.951Z,100415.17
2023-04-02T23:41:27.504Z,100412.08
2023-04-02T23:43:56.880Z,100411.09
2023-04-02T23:46:26.054Z,100408.45
2023-04-02T23:48:55.895Z,100410.65
2023-04-02T23:51:25.198Z,100409.88
2023-04-02T23:53:57.942Z,100409.87
2023-04-02T23:56:26.576Z,100411.11
2023-04-02T23:58:55.043Z,100411.05
